Merry Christmas and Happy New Year!

 

Sretan Božić i Nova godina!

 

METAR

METAR LDZA 121400Z 00000KT CAVOK 13/10 Q1016 NOSIG =
METAR LDSP 121400Z 11009KT 080V140 9999 BKN033 15/10 Q1018 NOSIG=
METAR LDDU 121400Z 14019KT 9999 FEW030 15/09 Q1020 NOSIG =
METAR LDZD 121400Z 15015KT 130V190 9999 FEW027 BKN070 15/10 Q1017 NOSIG =
METAR LDPL 121400Z VRB06KT 9999 -RA FEW005 BKN008 OVC030 13/12 Q1016 NOSIG=
METAR LDOS 121400Z VRB02KT CAVOK 23/04 Q1015=
METAR LDRI 121400Z 16013KT 100V200 9999 SCT020 OVC027 13/11 Q1016=

TAF

TAF LDZA 121125Z 1212/1312 22005KT 9999 SCT040
                 TX17/1213Z TN03/1304Z
    PROB30 TEMPO 1212/1218 25015KT SHRA SCT025TCU BKN030
           BECMG 1218/1220 04014KT
           TEMPO 1220/1306 04015G25KT 4000 RA BKN010 OVC030
    PROB30 TEMPO 1222/1302 1500 +RA=         
TAF LDSP 121125Z 1212/1312 11014KT 9999 BKN030
                 TX15/1212Z TN12/1304Z
           TEMPO 1216/1312 RA
    PROB40 TEMPO 1216/1312 4000 SHRA BKN017 FEW020TCU
    PROB40 TEMPO 1303/1310 19010KT 3000 TSRA BKN014 FEW017CB
           BECMG 1304/1306 17008KT=         
TAF LDDU 121125Z 1212/1312 14016KT 9999 SCT030
                 TX16/1212Z TN11/1303Z
    PROB40 TEMPO 1212/1310 14018G28KT
           TEMPO 1222/1312 4000 RA BKN014
    PROB40 TEMPO 1309/1312 3000 TSRA BKN008 SCT010CB=         
TAF LDZD 121125Z 1212/1312 15016KT 9999 SCT030
                 TX15/1212Z TN07/1308Z
    PROB40 TEMPO 1212/1215 15016G26KT
           BECMG 1218/1220 12010KT
           TEMPO 1222/1309 4000 RA
    PROB30 TEMPO 1302/1305 VRB10KT 2500 +TSRA FEW012CB BKN014
           BECMG 1305/1307 06014KT
    PROB40 TEMPO 1306/1312 06015G25KT=         
TAF LDPL 121125Z 1212/1312 14008KT 9999 SCT005 OVC040
                 TX13/1212Z TN06/1304Z
           TEMPO 1212/1302 4000 RA BKN005
           BECMG 1300/1302 06020G35KT
           BECMG 1309/1311 06018KT=         
TAF LDOS 121125Z 1212/1312 VRB02KT CAVOK
                 TX22/1213Z TN06/1304Z
    PROB30 TEMPO 1214/1219 SHRA FEW035TCU BKN040
           TEMPO 1300/1312 RA BKN010
           BECMG 1300/1302 29015KT=         
TAF LDRI 121125Z 1212/1312 VRB02KT 9999 OVC030
                 TX12/1212Z TN06/1304Z
           TEMPO 1212/1301 4000 RA BKN010 OVC030
           BECMG 1223/1301 04020G35KT
    PROB30 TEMPO 1309/1312 04035G50KT=         
TAF LDSB NIL=         
TAF LDLO NIL=

SIGMET

AIRMET

If you cannot log in with your user account, please contact stjepko.jancijev@crocontrol.hr.
Specifically, the website deactivates user accounts that have not been used for more than 365 days, so they must be reactivated.
 

         

      Politika MET podataka      

 

Ukoliko se svojim korisničkim računom ne možete logirati na web stranicu, molim vas da se obratite na stjepko.jancijev@crocontrol.hr.

Naime, web stranica deaktivira korisničke račune koji nisu korišteni više od 365 dana te ih je potrebno ponovno aktivirati.